Time;durP1;ratioP1;P1;durP2;ratioP2;P2;SDS_P1;SDS_P2;PMS_P1;PMS_P2;Temp;Humidity;BMP_temperature;BMP_pressure;BME280_temperature;BME280_humidity;BME280_pressure;Samples;Min_cycle;Max_cycle;Signal;HPM_P1;HPM_P2
2022/01/15 00:01:01;;;;;;;;;;;;;;;;;;2190433;59;19410;-68
2022/01/15 00:03:34;;;;;;;;;;;;;;;;;;2189780;59;22357;-69
2022/01/15 00:06:07;;;;;;;;;;;;;;;;;;2191118;59;17937;-68
2022/01/15 00:08:40;;;;;;;;;;;;;;;;;;2190579;67;23049;-68
2022/01/15 00:11:13;;;;;;;;;;;;;;;;;;2190617;67;16358;-68
2022/01/15 00:13:54;;;;;;;;;;;;;;;;;;2189434;59;20762;-68
2022/01/15 00:16:34;;;;;;;;;;;;;;;;;;2190756;67;24772;-68
2022/01/15 00:19:09;;;;;;;;;;;;;;;;;;2190492;59;15480;-67
2022/01/15 00:21:43;;;;;;;;;;;;;;;;;;2189841;67;22195;-68
2022/01/15 00:24:16;;;;;;;;;;;;;;;;;;2190628;67;17826;-68
2022/01/15 00:26:49;;;;;;;;;;;;;;;;;;2193018;59;15625;-68
2022/01/15 00:29:22;;;;;;;;;;;;;;;;;;2190020;59;21144;-68
2022/01/15 00:31:58;;;;;;;;;;;;;;;;;;2190798;59;14831;-68
2022/01/15 00:34:31;;;;;;;;;;;;;;;;;;2195915;54;22938;-69
2022/01/15 00:37:05;;;;;;;;;;;;;;;;;;2199064;59;41473;-68
2022/01/15 00:39:38;;;;;;;;;;;;;;;;;;2199051;59;51037;-69
2022/01/15 00:42:13;;;;;;;;;;;;;;;;;;2199734;59;125126;-69
2022/01/15 00:44:49;;;;;;;;;;;;;;;;;;2198909;59;26987;-69
2022/01/15 00:47:31;;;;;;;;;;;;;;;;;;2196491;59;48701;-69
2022/01/15 00:50:08;;;;;;;;;;;;;;;;;;2199864;59;24084;-69
2022/01/15 00:52:44;;;;;;;;;;;;;;;;;;2196659;59;185686;-69
2022/01/15 00:55:18;;;;;;;;;;;;;;;;;;2164000;59;2352279;-69
2022/01/15 00:57:52;;;;;;;;;;;;;;;;;;2197206;59;24530;-69
2022/01/15 01:00:26;;;;;;;;;;;;;;;;;;2199269;59;28858;-69
2022/01/15 01:03:03;;;;;;;;;;;;;;;;;;2199621;59;16051;-69
2022/01/15 01:05:48;;;;;;;;;;;;;;;;;;1937394;59;23680902;-68
2022/01/15 01:08:21;;;;;;;;;;;;;;;;;;2198550;60;16312;-70
2022/01/15 01:10:57;;;;;;;;;;;;;;;;;;2199031;59;51234;-69
2022/01/15 01:25:02;;;;;;;;;;;;;;;;;;2198445;67;43669;-69
2022/01/15 01:28:03;;;;;;;;;;;;;;;;;;2197390;59;28159;-69
2022/01/15 01:30:42;;;;;;;;;;;;;;;;;;2198936;59;39278;-69
2022/01/15 01:33:33;;;;;;;;;;;;;;;;;;2199508;67;49693;-69
2022/01/15 01:36:18;;;;;;;;;;;;;;;;;;2197457;59;34070;-69
2022/01/15 01:38:55;;;;;;;;;;;;;;;;;;2197995;59;25492;-68
2022/01/15 01:41:35;;;;;;;;;;;;;;;;;;2197741;64;37738;-69
2022/01/15 01:44:15;;;;;;;;;;;;;;;;;;2200499;59;31303;-69
2022/01/15 01:46:58;;;;;;;;;;;;;;;;;;2200745;59;31158;-69
2022/01/15 01:49:31;;;;;;;;;;;;;;;;;;2197091;59;94786;-69
2022/01/15 01:52:08;;;;;;;;;;;;;;;;;;2199476;59;18619;-69
2022/01/15 01:54:41;;;;;;;;;;;;;;;;;;2199001;59;28988;-69
2022/01/15 01:57:14;;;;;;;;;;;;;;;;;;2199098;67;40660;-69
2022/01/15 01:59:48;;;;;;;;;;;;;;;;;;2198992;59;21805;-68
2022/01/15 02:02:21;;;;;;;;;;;;;;;;;;2199136;67;78330;-69
2022/01/15 02:04:59;;;;;;;;;;;;;;;;;;2198807;59;18544;-69
2022/01/15 02:07:35;;;;;;;;;;;;;;;;;;2195652;67;208305;-68
2022/01/15 02:10:10;;;;;;;;;;;;;;;;;;2199931;63;24048;-69
2022/01/15 02:13:15;;;;;;;;;;;;;;;;;;1446171;67;51367404;-69
2022/01/15 02:16:16;;;;;;;;;;;;;;;;;;2155985;59;2807881;-69
2022/01/15 02:18:54;;;;;;;;;;;;;;;;;;2200207;59;15865;-68
2022/01/15 02:24:23;;;;;;;;;;;;;;;;;;2197997;63;26071;-68
2022/01/15 02:26:57;;;;;;;;;;;;;;;;;;2199307;59;28467;-69
2022/01/15 02:29:30;;;;;;;;;;;;;;;;;;2197753;59;53094;-69
2022/01/15 02:32:04;;;;;;;;;;;;;;;;;;2198106;67;42814;-69
2022/01/15 02:34:37;;;;;;;;;;;;;;;;;;2197187;59;154848;-69
2022/01/15 02:37:14;;;;;;;;;;;;;;;;;;2197972;67;14963;-69
2022/01/15 02:39:54;;;;;;;;;;;;;;;;;;2197834;67;76833;-69
2022/01/15 02:42:30;;;;;;;;;;;;;;;;;;2198511;66;22571;-69
2022/01/15 02:45:05;;;;;;;;;;;;;;;;;;2198557;59;19334;-69
2022/01/15 02:50:28;;;;;;;;;;;;;;;;;;2198048;67;29989;-69
2022/01/15 02:53:07;;;;;;;;;;;;;;;;;;2199430;59;25176;-69
2022/01/15 02:55:49;;;;;;;;;;;;;;;;;;2198542;59;25757;-69
2022/01/15 02:58:24;;;;;;;;;;;;;;;;;;2199264;59;29606;-69
2022/01/15 03:01:11;;;;;;;;;;;;;;;;;;2198661;67;29145;-69
2022/01/15 03:03:45;;;;;;;;;;;;;;;;;;2197504;59;48637;-69
2022/01/15 03:06:20;;;;;;;;;;;;;;;;;;2199602;59;20116;-69
2022/01/15 03:15:01;;;;;;;;;;;;;;;;;;2198738;59;22055;-69
2022/01/15 03:17:34;;;;;;;;;;;;;;;;;;2197778;59;28038;-69
2022/01/15 03:20:08;;;;;;;;;;;;;;;;;;2199553;67;23560;-69
2022/01/15 03:22:42;;;;;;;;;;;;;;;;;;2199929;67;14505;-69
2022/01/15 03:25:23;;;;;;;;;;;;;;;;;;2198752;67;57112;-69
2022/01/15 03:28:33;;;;;;;;;;;;;;;;;;1984301;59;14209292;-69
2022/01/15 03:31:06;;;;;;;;;;;;;;;;;;2198098;59;28739;-70
2022/01/15 03:33:40;;;;;;;;;;;;;;;;;;2196829;59;31352;-68
2022/01/15 03:36:13;;;;;;;;;;;;;;;;;;2196495;59;162288;-69
2022/01/15 03:38:47;;;;;;;;;;;;;;;;;;2198461;64;37098;-69
2022/01/15 03:41:20;;;;;;;;;;;;;;;;;;2169982;64;1930468;-70
2022/01/15 03:43:56;;;;;;;;;;;;;;;;;;2199446;67;21956;-69
2022/01/15 03:46:30;;;;;;;;;;;;;;;;;;2199731;59;24641;-69
2022/01/15 03:49:03;;;;;;;;;;;;;;;;;;2199932;59;22257;-69
2022/01/15 03:51:36;;;;;;;;;;;;;;;;;;2196773;63;48689;-69
2022/01/15 03:54:10;;;;;;;;;;;;;;;;;;2199330;59;27645;-68
2022/01/15 03:56:43;;;;;;;;;;;;;;;;;;2199718;59;15907;-68
2022/01/15 03:59:19;;;;;;;;;;;;;;;;;;2197173;67;152539;-69
2022/01/15 04:02:00;;;;;;;;;;;;;;;;;;2198362;63;24001;-69
2022/01/15 04:04:33;;;;;;;;;;;;;;;;;;2199622;59;38511;-69
2022/01/15 04:07:08;;;;;;;;;;;;;;;;;;2199423;59;19096;-69
2022/01/15 04:09:41;;;;;;;;;;;;;;;;;;2196075;66;187841;-69
2022/01/15 04:12:18;;;;;;;;;;;;;;;;;;2198650;67;96411;-69
2022/01/15 04:14:54;;;;;;;;;;;;;;;;;;2198164;59;50388;-69
2022/01/15 04:17:27;;;;;;;;;;;;;;;;;;2196597;63;140708;-69
2022/01/15 04:20:01;;;;;;;;;;;;;;;;;;2200501;59;29813;-69
2022/01/15 04:22:34;;;;;;;;;;;;;;;;;;2199421;59;15781;-69
2022/01/15 04:25:08;;;;;;;;;;;;;;;;;;2199239;59;25953;-69
2022/01/15 04:27:43;;;;;;;;;;;;;;;;;;2196523;67;90266;-69
2022/01/15 04:30:35;;;;;;;;;;;;;;;;;;;;;
2022/01/15 04:33:13;;;;;;;;;;;;;;;;;;2199226;67;28267;-68
2022/01/15 04:35:46;;;;;;;;;;;;;;;;;;2198016;59;32374;-69
2022/01/15 04:38:19;;;;;;;;;;;;;;;;;;2200133;59;15526;-69
2022/01/15 04:40:55;;;;;;;;;;;;;;;;;;2102694;67;6637991;-69
2022/01/15 04:43:31;;;;;;;;;;;;;;;;;;2199294;67;23080;-69
2022/01/15 04:46:07;;;;;;;;;;;;;;;;;;2200094;59;15761;-69
2022/01/15 04:48:40;;;;;;;;;;;;;;;;;;2199676;59;25740;-69
2022/01/15 04:51:14;;;;;;;;;;;;;;;;;;2199635;59;41829;-69
2022/01/15 04:53:47;;;;;;;;;;;;;;;;;;2197704;59;43864;-69
2022/01/15 04:56:20;;;;;;;;;;;;;;;;;;2200212;67;53490;-69
2022/01/15 04:58:54;;;;;;;;;;;;;;;;;;2199276;67;67790;-69
2022/01/15 05:01:42;;;;;;;;;;;;;;;;;;2198573;67;86222;-69
2022/01/15 05:04:16;;;;;;;;;;;;;;;;;;2200329;59;17495;-69
2022/01/15 05:06:49;;;;;;;;;;;;;;;;;;2199294;67;38520;-69
2022/01/15 05:09:22;;;;;;;;;;;;;;;;;;2199477;59;29282;-69
2022/01/15 05:12:01;;;;;;;;;;;;;;;;;;2199394;59;60284;-69
2022/01/15 05:14:38;;;;;;;;;;;;;;;;;;2198731;59;18855;-69
2022/01/15 05:17:14;;;;;;;;;;;;;;;;;;2199761;67;16998;-69
2022/01/15 05:19:48;;;;;;;;;;;;;;;;;;2199279;59;34616;-69
2022/01/15 05:22:22;;;;;;;;;;;;;;;;;;2200043;59;16044;-69
2022/01/15 05:24:55;;;;;;;;;;;;;;;;;;2200394;67;27403;-69
2022/01/15 05:27:28;;;;;;;;;;;;;;;;;;2197278;59;68948;-69
2022/01/15 05:30:02;;;;;;;;;;;;;;;;;;2200395;59;13668;-69
2022/01/15 05:35:27;;;;;;;;;;;;;;;;;;2199089;59;15527;-69
2022/01/15 05:38:01;;;;;;;;;;;;;;;;;;2198872;63;22246;-69
2022/01/15 05:40:34;;;;;;;;;;;;;;;;;;2200267;66;34880;-69
2022/01/15 05:43:15;;;;;;;;;;;;;;;;;;2199958;67;16796;-70
2022/01/15 05:45:53;;;;;;;;;;;;;;;;;;2195599;59;211908;-69
2022/01/15 05:48:29;;;;;;;;;;;;;;;;;;1426321;59;52603562;-69
2022/01/15 05:51:21;;;;;;;;;;;;;;;;;;2200207;67;13987;-69
2022/01/15 05:53:54;;;;;;;;;;;;;;;;;;2197946;59;17624;-69
2022/01/15 05:59:21;;;;;;;;;;;;;;;;;;2198961;59;18733;-69
2022/01/15 06:01:55;;;;;;;;;;;;;;;;;;2200923;67;23149;-69
2022/01/15 06:04:38;;;;;;;;;;;;;;;;;;2199940;59;25027;-69
2022/01/15 06:10:15;;;;;;;;;;;;;;;;;;1895415;67;20575476;-69
2022/01/15 06:12:49;;;;;;;;;;;;;;;;;;2200071;67;33714;-69
2022/01/15 06:15:40;;;;;;;;;;;;;;;;;;2145835;59;14370661;-73
2022/01/15 06:21:05;;;;;;;;;;;;;;;;;;2199982;59;17925;-69
2022/01/15 06:23:39;;;;;;;;;;;;;;;;;;2197396;59;87612;-69
2022/01/15 06:26:12;;;;;;;;;;;;;;;;;;2200207;67;29278;-69
2022/01/15 06:28:47;;;;;;;;;;;;;;;;;;2196918;59;189177;-69
2022/01/15 06:31:34;;;;;;;;;;;;;;;;;;;;;
2022/01/15 06:36:50;;;;;;;;;;;;;;;;;;2213237;58;17850;-69
2022/01/15 06:39:23;;;;;;;;;;;;;;;;;;2215889;63;16631;-68
2022/01/15 06:41:56;;;;;;;;;;;;;;;;;;2218834;66;14754;-68
2022/01/15 06:44:29;;;;;;;;;;;;;;;;;;2216454;58;26968;-68
2022/01/15 06:47:02;;;;;;;;;;;;;;;;;;2213465;59;19602;-68
2022/01/15 06:49:36;;;;;;;;;;;;;;;;;;2213377;59;23210;-68
2022/01/15 06:52:12;;;;;;;;;;;;;;;;;;2214295;59;15961;-68
2022/01/15 06:54:45;;;;;;;;;;;;;;;;;;2212914;59;14069;-68
2022/01/15 06:57:18;;;;;;;;;;;;;;;;;;2213281;59;15663;-67
2022/01/15 06:59:51;;;;;;;;;;;;;;;;;;2209809;67;22170;-68
2022/01/15 07:02:24;;;;;;;;;;;;;;;;;;2214810;63;22001;-68
2022/01/15 07:04:57;;;;;;;;;;;;;;;;;;2214288;59;13288;-68
2022/01/15 07:07:34;;;;;;;;;;;;;;;;;;2214235;64;19438;-68
2022/01/15 07:10:08;;;;;;;;;;;;;;;;;;2216293;58;19826;-68
2022/01/15 07:12:41;;;;;;;;;;;;;;;;;;2212979;63;151381;-68
2022/01/15 07:15:14;;;;;;;;;;;;;;;;;;2214602;59;19575;-68
2022/01/15 07:17:48;;;;;;;;;;;;;;;;;;2212476;66;27599;-68
2022/01/15 07:20:22;;;;;;;;;;;;;;;;;;2215251;59;16653;-68
2022/01/15 07:22:59;;;;;;;;;;;;;;;;;;2215447;59;21532;-68
2022/01/15 07:25:32;;;;;;;;;;;;;;;;;;2214319;64;21898;-68
2022/01/15 07:28:05;;;;;;;;;;;;;;;;;;2215471;59;15578;-68
2022/01/15 07:30:38;;;;;;;;;;;;;;;;;;2213155;59;25430;-68
2022/01/15 07:33:11;;;;;;;;;;;;;;;;;;2214539;66;21001;-68
2022/01/15 07:35:45;;;;;;;;;;;;;;;;;;2212312;59;15556;-68
2022/01/15 07:38:22;;;;;;;;;;;;;;;;;;2213775;66;14101;-68
2022/01/15 07:40:58;;;;;;;;;;;;;;;;;;2214793;66;14795;-68
2022/01/15 07:43:31;;;;;;;;;;;;;;;;;;2215008;59;19339;-68
2022/01/15 07:46:04;;;;;;;;;;;;;;;;;;2215965;64;23313;-68
2022/01/15 07:48:38;;;;;;;;;;;;;;;;;;2215307;59;19084;-68
2022/01/15 07:51:11;;;;;;;;;;;;;;;;;;2214417;66;26573;-68
2022/01/15 07:53:47;;;;;;;;;;;;;;;;;;2213874;59;18274;-68
2022/01/15 07:56:20;;;;;;;;;;;;;;;;;;2213357;59;17230;-68
2022/01/15 07:58:53;;;;;;;;;;;;;;;;;;2210677;67;17642;-68
2022/01/15 08:01:28;;;;;;;;;;;;;;;;;;2214814;59;23818;-68
2022/01/15 08:04:01;;;;;;;;;;;;;;;;;;2214733;59;17511;-68
2022/01/15 08:06:34;;;;;;;;;;;;;;;;;;2215319;66;15465;-68
2022/01/15 08:09:10;;;;;;;;;;;;;;;;;;2215835;59;16414;-68
2022/01/15 08:11:43;;;;;;;;;;;;;;;;;;2213684;59;16181;-68
2022/01/15 08:14:16;;;;;;;;;;;;;;;;;;2216098;59;26981;-68
2022/01/15 08:16:49;;;;;;;;;;;;;;;;;;2213775;59;18995;-68
2022/01/15 08:19:22;;;;;;;;;;;;;;;;;;2214480;59;26875;-68
2022/01/15 08:21:55;;;;;;;;;;;;;;;;;;2215480;59;15046;-68
2022/01/15 08:24:31;;;;;;;;;;;;;;;;;;2216573;59;13671;-68
2022/01/15 08:27:05;;;;;;;;;;;;;;;;;;2213393;66;15965;-68
2022/01/15 08:29:38;;;;;;;;;;;;;;;;;;2213425;59;18242;-68
2022/01/15 08:32:11;;;;;;;;;;;;;;;;;;2215930;66;13468;-68
2022/01/15 08:34:44;;;;;;;;;;;;;;;;;;2213941;59;14951;-68
2022/01/15 08:37:17;;;;;;;;;;;;;;;;;;2214076;59;14421;-68
2022/01/15 08:39:53;;;;;;;;;;;;;;;;;;2213189;66;23162;-68
2022/01/15 08:42:26;;;;;;;;;;;;;;;;;;2215117;59;15216;-68
2022/01/15 08:44:59;;;;;;;;;;;;;;;;;;2215144;59;12080;-68
2022/01/15 08:47:33;;;;;;;;;;;;;;;;;;2213751;59;23261;-68
2022/01/15 08:50:06;;;;;;;;;;;;;;;;;;2215514;59;23454;-68
2022/01/15 08:52:40;;;;;;;;;;;;;;;;;;2214461;66;16919;-68
2022/01/15 08:55:17;;;;;;;;;;;;;;;;;;2213442;59;24061;-68
2022/01/15 08:57:50;;;;;;;;;;;;;;;;;;2213519;59;16707;-69
2022/01/15 09:00:23;;;;;;;;;;;;;;;;;;2215283;66;16948;-69
2022/01/15 09:02:56;;;;;;;;;;;;;;;;;;2214611;59;16197;-68
2022/01/15 09:05:31;;;;;;;;;;;;;;;;;;2213983;59;14832;-68
2022/01/15 09:08:06;;;;;;;;;;;;;;;;;;2212912;59;16588;-68
2022/01/15 09:10:42;;;;;;;;;;;;;;;;;;2213675;66;23222;-68
2022/01/15 09:13:15;;;;;;;;;;;;;;;;;;2214279;66;14707;-69
2022/01/15 09:15:49;;;;;;;;;;;;;;;;;;2213104;59;15751;-68
2022/01/15 09:18:23;;;;;;;;;;;;;;;;;;2213520;59;21486;-68
2022/01/15 09:20:56;;;;;;;;;;;;;;;;;;2213576;59;27786;-68
2022/01/15 09:23:29;;;;;;;;;;;;;;;;;;2213238;63;20595;-68
2022/01/15 09:26:06;;;;;;;;;;;;;;;;;;2215422;59;13011;-68
2022/01/15 09:31:29;;;;;;;;;;;;;;;;;;2212806;59;16325;-68
2022/01/15 09:34:02;;;;;;;;;;;;;;;;;;2214669;59;21171;-68
2022/01/15 09:36:35;;;;;;;;;;;;;;;;;;2213832;59;19360;-68
2022/01/15 09:39:08;;;;;;;;;;;;;;;;;;2213718;66;16499;-68
2022/01/15 09:41:48;;;;;;;;;;;;;;;;;;2214425;59;25252;-68
2022/01/15 09:44:21;;;;;;;;;;;;;;;;;;2214886;59;17726;-68
2022/01/15 09:46:54;;;;;;;;;;;;;;;;;;2215074;59;19731;-68
2022/01/15 09:49:29;;;;;;;;;;;;;;;;;;2210465;59;24937;-68
2022/01/15 09:52:04;;;;;;;;;;;;;;;;;;2215463;59;18148;-68
2022/01/15 09:54:38;;;;;;;;;;;;;;;;;;2209892;59;13613;-68
2022/01/15 09:57:13;;;;;;;;;;;;;;;;;;2213517;59;21834;-68
2022/01/15 09:59:46;;;;;;;;;;;;;;;;;;2213267;59;27141;-68
2022/01/15 10:02:20;;;;;;;;;;;;;;;;;;2214794;63;13186;-68
2022/01/15 10:04:53;;;;;;;;;;;;;;;;;;2214894;59;16571;-68
2022/01/15 10:07:28;;;;;;;;;;;;;;;;;;2212531;59;16995;-68
2022/01/15 10:10:13;;;;;;;;;;;;;;;;;;2214098;66;12947;-68
2022/01/15 10:12:49;;;;;;;;;;;;;;;;;;2213826;66;14443;-68
2022/01/15 10:15:23;;;;;;;;;;;;;;;;;;2212323;59;27459;-70
2022/01/15 10:17:56;;;;;;;;;;;;;;;;;;2214117;64;14498;-68
2022/01/15 10:20:37;;;;;;;;;;;;;;;;;;2214733;59;18421;-67
2022/01/15 10:23:16;;;;;;;;;;;;;;;;;;2214105;59;21924;-68
2022/01/15 10:26:04;;;;;;;;;;;;;;;;;;2212828;59;31076;-68
2022/01/15 10:28:52;;;;;;;;;;;;;;;;;;2211099;58;15448;-68
2022/01/15 10:31:26;;;;;;;;;;;;;;;;;;2212143;59;24977;-68
2022/01/15 10:34:00;;;;;;;;;;;;;;;;;;2211135;66;16427;-69
2022/01/15 10:36:35;;;;;;;;;;;;;;;;;;2213590;59;16349;-69
2022/01/15 10:39:15;;;;;;;;;;;;;;;;;;2213338;59;14241;-68
2022/01/15 10:41:48;;;;;;;;;;;;;;;;;;2212249;59;20928;-68
2022/01/15 10:44:36;;;;;;;;;;;;;;;;;;2212389;58;14941;-68
2022/01/15 10:47:12;;;;;;;;;;;;;;;;;;2214241;59;12549;-68
2022/01/15 10:49:46;;;;;;;;;;;;;;;;;;2210092;63;14723;-69
2022/01/15 10:52:20;;;;;;;;;;;;;;;;;;2213800;59;16673;-69
2022/01/15 10:54:57;;;;;;;;;;;;;;;;;;2211801;59;21379;-68
2022/01/15 10:57:32;;;;;;;;;;;;;;;;;;2211913;59;27285;-69
2022/01/15 11:00:19;;;;;;;;;;;;;;;;;;2210692;66;23326;-69
2022/01/15 11:02:52;;;;;;;;;;;;;;;;;;2214685;58;28824;-69
2022/01/15 11:05:30;;;;;;;;;;;;;;;;;;2212784;59;17182;-69
2022/01/15 11:08:11;;;;;;;;;;;;;;;;;;2214152;59;16859;-68
2022/01/15 11:10:45;;;;;;;;;;;;;;;;;;2214299;59;19846;-69
2022/01/15 11:13:19;;;;;;;;;;;;;;;;;;2213271;59;16052;-71
2022/01/15 11:15:57;;;;;;;;;;;;;;;;;;2210134;59;16388;-69
2022/01/15 11:18:32;;;;;;;;;;;;;;;;;;2212675;59;32729;-69
2022/01/15 11:21:06;;;;;;;;;;;;;;;;;;2213780;59;17663;-69
2022/01/15 11:23:41;;;;;;;;;;;;;;;;;;2214480;63;18057;-69
2022/01/15 11:26:15;;;;;;;;;;;;;;;;;;2213600;58;15077;-69
2022/01/15 11:28:48;;;;;;;;;;;;;;;;;;2213703;59;16394;-69
2022/01/15 11:31:26;;;;;;;;;;;;;;;;;;2211894;59;17291;-69
2022/01/15 11:34:00;;;;;;;;;;;;;;;;;;2213197;59;29077;-69
2022/01/15 11:36:35;;;;;;;;;;;;;;;;;;2213475;59;15336;-68
2022/01/15 11:39:09;;;;;;;;;;;;;;;;;;2213173;59;15736;-69
2022/01/15 11:41:43;;;;;;;;;;;;;;;;;;2213525;63;19964;-68
2022/01/15 11:44:17;;;;;;;;;;;;;;;;;;2216027;63;17129;-68
2022/01/15 11:46:54;;;;;;;;;;;;;;;;;;2214979;59;22718;-69
2022/01/15 11:49:35;;;;;;;;;;;;;;;;;;2214925;63;24277;-69
2022/01/15 11:52:27;;;;;;;;;;;;;;;;;;2214496;59;15200;-69
2022/01/15 11:55:24;;;;;;;;;;;;;;;;;;2213778;59;12970;-70
2022/01/15 11:58:01;;;;;;;;;;;;;;;;;;2213289;63;21434;-68
2022/01/15 12:00:43;;;;;;;;;;;;;;;;;;2214114;59;20297;-69
2022/01/15 12:03:19;;;;;;;;;;;;;;;;;;2215586;64;19139;-69
2022/01/15 12:06:02;;;;;;;;;;;;;;;;;;2214570;64;20171;-68
2022/01/15 12:08:36;;;;;;;;;;;;;;;;;;2215600;66;29427;-69
2022/01/15 12:11:09;;;;;;;;;;;;;;;;;;2216074;59;14708;-68
2022/01/15 12:13:52;;;;;;;;;;;;;;;;;;2213643;66;18169;-69
2022/01/15 12:16:36;;;;;;;;;;;;;;;;;;2214523;59;15786;-69
2022/01/15 12:19:12;;;;;;;;;;;;;;;;;;2214410;63;13010;-69
2022/01/15 12:21:46;;;;;;;;;;;;;;;;;;2214725;59;16965;-69
2022/01/15 12:24:38;;;;;;;;;;;;;;;;;;2216029;59;27200;-68
2022/01/15 12:27:12;;;;;;;;;;;;;;;;;;2213409;59;17332;-71
2022/01/15 12:29:46;;;;;;;;;;;;;;;;;;2213269;59;15934;-69
2022/01/15 12:32:30;;;;;;;;;;;;;;;;;;2213224;59;15645;-69
2022/01/15 12:35:10;;;;;;;;;;;;;;;;;;2213283;59;28536;-69
2022/01/15 12:37:56;;;;;;;;;;;;;;;;;;2211177;59;19373;-69
2022/01/15 12:40:34;;;;;;;;;;;;;;;;;;2214607;66;23447;-69
2022/01/15 12:43:08;;;;;;;;;;;;;;;;;;2213695;59;14649;-68
2022/01/15 12:45:42;;;;;;;;;;;;;;;;;;2213887;59;22220;-68
2022/01/15 12:48:17;;;;;;;;;;;;;;;;;;2213433;59;20837;-68
2022/01/15 12:50:53;;;;;;;;;;;;;;;;;;2214900;59;27310;-69
2022/01/15 12:53:27;;;;;;;;;;;;;;;;;;2214645;64;16662;-68
2022/01/15 12:56:00;;;;;;;;;;;;;;;;;;2214334;59;25312;-68
2022/01/15 12:58:34;;;;;;;;;;;;;;;;;;2214103;66;13888;-69
2022/01/15 13:01:07;;;;;;;;;;;;;;;;;;2215374;59;14587;-69
2022/01/15 13:03:41;;;;;;;;;;;;;;;;;;2214481;59;23542;-69
2022/01/15 13:06:17;;;;;;;;;;;;;;;;;;2214540;59;18383;-68
2022/01/15 13:08:50;;;;;;;;;;;;;;;;;;2216046;59;13630;-69
2022/01/15 13:11:26;;;;;;;;;;;;;;;;;;2214567;59;26007;-69
2022/01/15 13:14:04;;;;;;;;;;;;;;;;;;2215288;59;16375;-69
2022/01/15 13:16:37;;;;;;;;;;;;;;;;;;2214018;59;16617;-69
2022/01/15 13:19:10;;;;;;;;;;;;;;;;;;2216583;53;16613;-69
2022/01/15 13:21:46;;;;;;;;;;;;;;;;;;2218259;58;21939;-68
2022/01/15 13:24:19;;;;;;;;;;;;;;;;;;2217927;58;16362;-69
2022/01/15 13:26:53;;;;;;;;;;;;;;;;;;2221663;58;22579;-69
2022/01/15 13:29:38;;;;;;;;;;;;;;;;;;2219083;58;31474;-72
2022/01/15 13:32:11;;;;;;;;;;;;;;;;;;2217658;58;18858;-71
2022/01/15 13:34:48;;;;;;;;;;;;;;;;;;2217052;59;21164;-72
2022/01/15 13:37:24;;;;;;;;;;;;;;;;;;2216517;66;20610;-71
2022/01/15 13:39:57;;;;;;;;;;;;;;;;;;2216915;58;18314;-72
2022/01/15 13:42:35;;;;;;;;;;;;;;;;;;2217371;66;14890;-71
2022/01/15 13:45:08;;;;;;;;;;;;;;;;;;2217204;66;19917;-71
2022/01/15 13:47:42;;;;;;;;;;;;;;;;;;2215297;58;19805;-72
2022/01/15 13:53:32;;;;;;;;;;;;;;;;;;2203864;64;16817;-72
2022/01/15 13:56:30;;;;;;;;;;;;;;;;;;2202211;66;16079;-72
2022/01/15 13:59:05;;;;;;;;;;;;;;;;;;2199096;59;18027;-71
2022/01/15 14:01:39;;;;;;;;;;;;;;;;;;2201923;59;19728;-71
2022/01/15 14:04:22;;;;;;;;;;;;;;;;;;2201813;64;16286;-71
2022/01/15 14:06:55;;;;;;;;;;;;;;;;;;2204089;59;15104;-72
2022/01/15 14:09:32;;;;;;;;;;;;;;;;;;2204809;58;16808;-71
2022/01/15 14:12:06;;;;;;;;;;;;;;;;;;2201597;58;17505;-71
2022/01/15 14:14:53;;;;;;;;;;;;;;;;;;2201235;59;20054;-71
2022/01/15 14:17:27;;;;;;;;;;;;;;;;;;2200776;59;22308;-72
2022/01/15 14:20:39;;;;;;;;;;;;;;;;;;2200600;58;16851;-72
2022/01/15 14:23:13;;;;;;;;;;;;;;;;;;2199974;59;19440;-71
2022/01/15 14:25:49;;;;;;;;;;;;;;;;;;2200463;59;17653;-72
2022/01/15 14:28:23;;;;;;;;;;;;;;;;;;2201707;59;16919;-71
2022/01/15 14:30:56;;;;;;;;;;;;;;;;;;2202042;59;21154;-71
2022/01/15 14:33:29;;;;;;;;;;;;;;;;;;2203969;59;18358;-71
2022/01/15 14:36:03;;;;;;;;;;;;;;;;;;2209597;59;16381;-72
2022/01/15 14:38:36;;;;;;;;;;;;;;;;;;2201339;59;15017;-71
2022/01/15 14:41:12;;;;;;;;;;;;;;;;;;2209207;59;14347;-72
2022/01/15 14:43:45;;;;;;;;;;;;;;;;;;2213186;58;19430;-71
2022/01/15 14:46:18;;;;;;;;;;;;;;;;;;2213066;59;14788;-72
2022/01/15 14:48:51;;;;;;;;;;;;;;;;;;2208767;59;20629;-72
2022/01/15 14:51:25;;;;;;;;;;;;;;;;;;2211979;59;23719;-71
2022/01/15 14:53:58;;;;;;;;;;;;;;;;;;2210199;58;21522;-72
2022/01/15 14:56:34;;;;;;;;;;;;;;;;;;2210551;58;16292;-72
2022/01/15 14:59:07;;;;;;;;;;;;;;;;;;2200478;58;16854;-71
2022/01/15 15:01:40;;;;;;;;;;;;;;;;;;2202598;59;19599;-72
2022/01/15 15:04:13;;;;;;;;;;;;;;;;;;2210656;59;22442;-71
2022/01/15 15:06:47;;;;;;;;;;;;;;;;;;2210852;59;23300;-71
2022/01/15 15:09:20;;;;;;;;;;;;;;;;;;2211357;59;17964;-71
2022/01/15 15:11:57;;;;;;;;;;;;;;;;;;2214444;66;15958;-72
2022/01/15 15:14:30;;;;;;;;;;;;;;;;;;2213958;59;14335;-74
2022/01/15 15:17:03;;;;;;;;;;;;;;;;;;2213251;66;16693;-71
2022/01/15 15:19:36;;;;;;;;;;;;;;;;;;2209895;59;16815;-69
2022/01/15 15:22:09;;;;;;;;;;;;;;;;;;2214109;59;27398;-69
2022/01/15 15:24:42;;;;;;;;;;;;;;;;;;2210826;58;18488;-69
2022/01/15 15:27:18;;;;;;;;;;;;;;;;;;2199840;59;19748;-70
2022/01/15 15:29:51;;;;;;;;;;;;;;;;;;2203351;59;26162;-70
2022/01/15 15:32:24;;;;;;;;;;;;;;;;;;2205262;59;13959;-69
2022/01/15 15:34:58;;;;;;;;;;;;;;;;;;2203431;59;20416;-70
2022/01/15 15:37:32;;;;;;;;;;;;;;;;;;2203107;59;30295;-70
2022/01/15 15:40:06;;;;;;;;;;;;;;;;;;2206779;59;18623;-69
2022/01/15 15:42:42;;;;;;;;;;;;;;;;;;2206402;64;21180;-70
2022/01/15 15:45:15;;;;;;;;;;;;;;;;;;2205647;59;16204;-70
2022/01/15 15:47:49;;;;;;;;;;;;;;;;;;2209085;59;25071;-70
2022/01/15 15:50:22;;;;;;;;;;;;;;;;;;2205443;58;19117;-69
2022/01/15 15:52:55;;;;;;;;;;;;;;;;;;2203133;59;16468;-69
2022/01/15 15:55:28;;;;;;;;;;;;;;;;;;2206659;58;25433;-70
2022/01/15 15:58:04;;;;;;;;;;;;;;;;;;2206644;66;14873;-70
2022/01/15 16:00:38;;;;;;;;;;;;;;;;;;2202344;59;17635;-69
2022/01/15 16:03:11;;;;;;;;;;;;;;;;;;2206921;66;14052;-72
2022/01/15 16:05:44;;;;;;;;;;;;;;;;;;2203650;59;23699;-69
2022/01/15 16:08:17;;;;;;;;;;;;;;;;;;2203781;59;15084;-69
2022/01/15 16:10:50;;;;;;;;;;;;;;;;;;2202164;66;27815;-69
2022/01/15 16:13:26;;;;;;;;;;;;;;;;;;2206031;59;17770;-69
2022/01/15 16:15:59;;;;;;;;;;;;;;;;;;2202975;58;15379;-70
2022/01/15 16:18:33;;;;;;;;;;;;;;;;;;2205294;59;17503;-70
2022/01/15 16:21:09;;;;;;;;;;;;;;;;;;2205370;59;18154;-70
2022/01/15 16:23:43;;;;;;;;;;;;;;;;;;2201789;59;16092;-70
2022/01/15 16:26:16;;;;;;;;;;;;;;;;;;2207085;66;21395;-70
2022/01/15 16:28:52;;;;;;;;;;;;;;;;;;2203691;59;18713;-70
2022/01/15 16:31:25;;;;;;;;;;;;;;;;;;2203816;59;17784;-70
2022/01/15 16:33:58;;;;;;;;;;;;;;;;;;2206394;66;16985;-70
2022/01/15 16:36:31;;;;;;;;;;;;;;;;;;2207911;59;15663;-69
2022/01/15 16:39:05;;;;;;;;;;;;;;;;;;2202303;59;15890;-70
2022/01/15 16:41:38;;;;;;;;;;;;;;;;;;2203225;59;29221;-70
2022/01/15 16:44:14;;;;;;;;;;;;;;;;;;2203274;66;18025;-70
2022/01/15 16:46:47;;;;;;;;;;;;;;;;;;2203807;59;16321;-69
2022/01/15 16:49:20;;;;;;;;;;;;;;;;;;2202933;66;17778;-69
2022/01/15 16:51:53;;;;;;;;;;;;;;;;;;2204194;63;20447;-70
2022/01/15 16:54:27;;;;;;;;;;;;;;;;;;2203815;59;17349;-70
2022/01/15 16:57:00;;;;;;;;;;;;;;;;;;2203381;59;15358;-70
2022/01/15 16:59:36;;;;;;;;;;;;;;;;;;2200377;59;22787;-70
2022/01/15 17:02:09;;;;;;;;;;;;;;;;;;2216974;59;22192;-70
2022/01/15 17:04:42;;;;;;;;;;;;;;;;;;2215474;58;15937;-70
2022/01/15 17:07:16;;;;;;;;;;;;;;;;;;2212607;63;42615;-69
2022/01/15 17:09:49;;;;;;;;;;;;;;;;;;2206396;58;16070;-70
2022/01/15 17:12:22;;;;;;;;;;;;;;;;;;2214429;58;17476;-70
2022/01/15 17:14:58;;;;;;;;;;;;;;;;;;2209858;58;22064;-70
2022/01/15 17:17:34;;;;;;;;;;;;;;;;;;2209722;66;46480;-69
2022/01/15 17:20:08;;;;;;;;;;;;;;;;;;2212466;58;15489;-69
2022/01/15 17:22:41;;;;;;;;;;;;;;;;;;2203099;59;15900;-69
2022/01/15 17:25:15;;;;;;;;;;;;;;;;;;2204080;59;15561;-69
2022/01/15 17:27:48;;;;;;;;;;;;;;;;;;2202428;59;17392;-70
2022/01/15 17:30:24;;;;;;;;;;;;;;;;;;2201839;59;20910;-70
2022/01/15 17:32:57;;;;;;;;;;;;;;;;;;2201731;59;15879;-70
2022/01/15 17:35:30;;;;;;;;;;;;;;;;;;2202036;59;16393;-70
2022/01/15 17:38:03;;;;;;;;;;;;;;;;;;2203561;59;17138;-70
2022/01/15 17:40:36;;;;;;;;;;;;;;;;;;2202689;59;16454;-70
2022/01/15 17:43:10;;;;;;;;;;;;;;;;;;2204684;66;17450;-70
2022/01/15 17:45:46;;;;;;;;;;;;;;;;;;2201030;59;21113;-70
2022/01/15 17:48:20;;;;;;;;;;;;;;;;;;2202005;59;22811;-70
2022/01/15 17:50:53;;;;;;;;;;;;;;;;;;2201781;59;15596;-70
2022/01/15 17:53:26;;;;;;;;;;;;;;;;;;2200972;59;15955;-70
2022/01/15 17:56:02;;;;;;;;;;;;;;;;;;2199357;59;20994;-70
2022/01/15 17:58:35;;;;;;;;;;;;;;;;;;2200695;64;48916;-72
2022/01/15 18:01:12;;;;;;;;;;;;;;;;;;2200916;59;18242;-71
2022/01/15 18:03:45;;;;;;;;;;;;;;;;;;2199840;63;31108;-71
2022/01/15 18:06:18;;;;;;;;;;;;;;;;;;2201381;59;18541;-71
2022/01/15 18:08:52;;;;;;;;;;;;;;;;;;2200880;59;25903;-71
2022/01/15 18:11:26;;;;;;;;;;;;;;;;;;2199613;59;37663;-71
2022/01/15 18:14:00;;;;;;;;;;;;;;;;;;2201642;59;62177;-72
2022/01/15 18:16:36;;;;;;;;;;;;;;;;;;2203477;59;16749;-71
2022/01/15 18:19:10;;;;;;;;;;;;;;;;;;2203773;59;20092;-71
2022/01/15 18:21:44;;;;;;;;;;;;;;;;;;2200367;59;21721;-71
2022/01/15 18:24:18;;;;;;;;;;;;;;;;;;2203431;66;15762;-72
2022/01/15 18:26:52;;;;;;;;;;;;;;;;;;2205637;63;15679;-72